Time;durP1;ratioP1;P1;durP2;ratioP2;P2;SDS_P1;SDS_P2;PMS_P1;PMS_P2;Temp;Humidity;BMP_temperature;BMP_pressure;BME280_temperature;BME280_humidity;BME280_pressure;Samples;Min_cycle;Max_cycle;Signal;HPM_P1;HPM_P2
2023/10/11 00:02:51;;;;;;;30.40;15.80;;;;;;;;;;5020828;28;20040;-71
2023/10/11 00:05:17;;;;;;;29.20;14.13;;;;;;;;;;5020986;28;20021;-72
2023/10/11 00:07:44;;;;;;;34.30;15.52;;;;;;;;;;5020706;28;20053;-71
2023/10/11 00:10:11;;;;;;;25.25;13.32;;;11.80;99.90;;;;;;5020893;28;20101;-72
2023/10/11 00:12:41;;;;;;;31.42;14.38;;;;;;;;;;5020551;28;20022;-71
2023/10/11 00:15:13;;;;;;;32.95;14.93;;;11.70;99.90;;;;;;5020572;28;20037;-72
2023/10/11 00:17:41;;;;;;;26.35;15.23;;;;;;;;;;5020678;28;20084;-71
2023/10/11 00:20:17;;;;;;;27.83;14.40;;;;;;;;;;5020485;28;20101;-71
2023/10/11 00:22:43;;;;;;;35.55;14.43;;;;;;;;;;5020494;28;20068;-71
2023/10/11 00:25:10;;;;;;;27.00;14.55;;;;;;;;;;5020458;28;20017;-71
2023/10/11 00:27:36;;;;;;;22.05;12.98;;;;;;;;;;5020662;28;20030;-71
2023/10/11 00:30:02;;;;;;;29.85;13.98;;;;;;;;;;5020620;28;20029;-71
2023/10/11 00:32:29;;;;;;;27.58;13.45;;;;;;;;;;5020305;28;20076;-71
2023/10/11 00:34:55;;;;;;;25.30;13.20;;;;;;;;;;5020574;28;20041;-70
2023/10/11 00:37:21;;;;;;;30.88;13.75;;;;;;;;;;5020626;28;20057;-71
2023/10/11 00:39:47;;;;;;;28.67;13.57;;;;;;;;;;5020254;28;20230;-73
2023/10/11 00:42:13;;;;;;;27.92;14.68;;;;;;;;;;5020164;28;20030;-74
2023/10/11 00:44:42;;;;;;;27.17;12.95;;;;;;;;;;5020207;28;20018;-72
2023/10/11 00:47:08;;;;;;;24.00;13.05;;;;;;;;;;5020375;28;20026;-73
2023/10/11 00:49:35;;;;;;;28.90;13.77;;;;;;;;;;5020170;28;20363;-71
2023/10/11 00:52:06;;;;;;;36.55;15.68;;;;;;;;;;5020376;28;20029;-71
2023/10/11 00:54:32;;;;;;;27.92;14.18;;;;;;;;;;5022231;28;20030;-71
2023/10/11 00:56:59;;;;;;;38.45;15.50;;;;;;;;;;5023936;28;20352;-77
2023/10/11 00:59:25;;;;;;;28.95;13.73;;;;;;;;;;5024107;28;20017;-75
2023/10/11 01:01:51;;;;;;;27.83;13.82;;;;;;;;;;5029413;28;20040;-74
2023/10/11 01:04:18;;;;;;;33.30;15.15;;;;;;;;;;5023866;28;20320;-74
2023/10/11 01:06:48;;;;;;;34.88;14.38;;;;;;;;;;5035079;28;20022;-73
2023/10/11 01:09:17;;;;;;;30.52;13.07;;;;;;;;;;5024186;28;20023;-73
2023/10/11 01:11:45;;;;;;;30.98;14.40;;;;;;;;;;5023680;28;20047;-73
2023/10/11 01:14:11;;;;;;;31.55;13.93;;;;;;;;;;5023667;28;20025;-73
2023/10/11 01:16:38;;;;;;;26.95;14.70;;;;;;;;;;5039944;28;20018;-73
2023/10/11 01:19:16;;;;;;;33.72;14.15;;;;;;;;;;5043303;28;20029;-75
2023/10/11 01:21:46;;;;;;;28.70;14.20;;;;;;;;;;5043418;28;20024;-74
2023/10/11 01:24:14;;;;;;;24.23;13.13;;;;;;;;;;5043390;28;20129;-74
2023/10/11 01:26:42;;;;;;;34.20;14.68;;;;;;;;;;5043428;28;20017;-75
2023/10/11 01:29:10;;;;;;;29.13;13.93;;;;;;;;;;5043482;28;20080;-71
2023/10/11 01:31:38;;;;;;;27.15;13.57;;;;;;;;;;5043289;28;20025;-71
2023/10/11 01:34:04;;;;;;;27.38;13.52;;;;;;;;;;5043360;28;20036;-72
2023/10/11 01:36:30;;;;;;;28.73;15.07;;;;;;;;;;5042961;28;20518;-74
2023/10/11 01:39:03;;;;;;;29.15;14.82;;;;;;;;;;5042898;28;20049;-73
2023/10/11 01:41:29;;;;;;;30.38;14.57;;;;;;;;;;5042941;28;20417;-72
2023/10/11 01:43:56;;;;;;;35.13;16.05;;;11.40;99.90;;;;;;5042766;28;20257;-72
2023/10/11 01:46:35;;;;;;;35.45;15.00;;;;;;;;;;5043174;28;20025;-72
2023/10/11 01:49:03;;;;;;;33.88;16.05;;;;;;;;;;5042659;28;20328;-72
2023/10/11 01:51:29;;;;;;;27.58;13.93;;;;;;;;;;5042717;28;20329;-71
2023/10/11 01:53:56;;;;;;;33.60;14.65;;;;;;;;;;5042812;28;20025;-72
2023/10/11 01:56:25;;;;;;;32.08;14.50;;;;;;;;;;5042830;28;20026;-71
2023/10/11 01:58:52;;;;;;;26.58;13.65;;;;;;;;;;5042533;28;20062;-72
2023/10/11 02:01:21;;;;;;;29.77;14.15;;;;;;;;;;5042603;28;20025;-71
2023/10/11 02:03:53;;;;;;;31.13;15.57;;;11.40;99.90;;;;;;5042428;28;20206;-71
2023/10/11 02:06:19;;;;;;;24.02;13.57;;;;;;;;;;5040924;28;20025;-78
2023/10/11 02:08:46;;;;;;;30.75;14.60;;;;;;;;;;5042364;28;20273;-76
2023/10/11 02:11:14;;;;;;;33.42;15.07;;;;;;;;;;5042394;28;20112;-77
2023/10/11 02:13:41;;;;;;;30.73;14.60;;;;;;;;;;5040998;28;20029;-76
2023/10/11 02:16:14;;;;;;;33.30;14.02;;;;;;;;;;5042247;28;20093;-76
2023/10/11 02:18:40;;;;;;;33.30;16.25;;;;;;;;;;5042085;28;20067;-75
2023/10/11 02:21:06;;;;;;;34.50;15.95;;;;;;;;;;5042129;28;20041;-74
2023/10/11 02:23:39;;;;;;;26.08;14.52;;;;;;;;;;5042257;28;20037;-75
2023/10/11 02:26:18;;;;;;;29.17;14.25;;;11.50;99.90;;;;;;5042120;28;20019;-74
2023/10/11 02:28:45;;;;;;;33.20;15.95;;;;;;;;;;5042149;28;20352;-77
2023/10/11 02:31:14;;;;;;;33.42;16.67;;;;;;;;;;5042142;28;20017;-78
2023/10/11 02:33:41;;;;;;;28.27;15.80;;;;;;;;;;5041790;28;20064;-77
2023/10/11 02:36:17;;;;;;;30.33;15.35;;;;;;;;;;5042131;28;20100;-77
2023/10/11 02:38:54;;;;;;;33.50;15.65;;;;;;;;;;5041857;28;20018;-75
2023/10/11 02:41:26;;;;;;;38.15;15.23;;;;;;;;;;5041771;28;20025;-72
2023/10/11 02:43:53;;;;;;;26.95;14.05;;;11.30;99.90;;;;;;5042002;28;20298;-74
2023/10/11 02:46:23;;;;;;;33.55;16.52;;;;;;;;;;5041590;28;20097;-70
2023/10/11 02:49:18;;;;;;;27.63;13.88;;;11.40;99.90;;;;;;5041925;28;20021;-71
2023/10/11 02:51:52;;;;;;;31.95;15.32;;;;;;;;;;5041853;28;20033;-73
2023/10/11 02:54:18;;;;;;;30.15;16.27;;;;;;;;;;5041670;28;20297;-74
2023/10/11 02:56:47;;;;;;;32.47;15.32;;;;;;;;;;5041561;28;20363;-73
2023/10/11 02:59:19;;;;;;;32.28;15.25;;;;;;;;;;5041609;28;20028;-72
2023/10/11 03:01:59;;;;;;;33.05;14.82;;;;;;;;;;5041422;28;20029;-72
2023/10/11 03:04:41;;;;;;;27.52;14.82;;;11.20;99.90;;;;;;5041792;28;20041;-72
2023/10/11 03:07:23;;;;;;;30.50;15.57;;;;;;;;;;5041478;28;20089;-73
2023/10/11 03:09:49;;;;;;;36.85;16.23;;;;;;;;;;5041435;28;20040;-73
2023/10/11 03:12:19;;;;;;;32.70;15.02;;;;;;;;;;5041407;28;20022;-73
2023/10/11 03:14:45;;;;;;;34.67;14.90;;;;;;;;;;5041341;28;20325;-73
2023/10/11 03:17:13;;;;;;;39.38;16.40;;;;;;;;;;5040442;28;20029;-73
2023/10/11 03:19:43;;;;;;;27.52;13.65;;;;;;;;;;5041362;28;20021;-75
2023/10/11 03:22:12;;;;;;;30.63;14.50;;;11.50;99.90;;;;;;5041218;28;20747;-75
2023/10/11 03:24:40;;;;;;;33.40;15.90;;;;;;;;;;5041339;28;20052;-75
2023/10/11 03:27:13;;;;;;;36.08;16.15;;;;;;;;;;5041434;28;20037;-75
2023/10/11 03:29:40;;;;;;;44.72;15.65;;;;;;;;;;5041181;28;20021;-72
2023/10/11 03:32:06;;;;;;;34.88;15.77;;;;;;;;;;5040279;28;20045;-73
2023/10/11 03:34:32;;;;;;;30.70;14.88;;;;;;;;;;5041042;28;20034;-72
2023/10/11 03:36:59;;;;;;;35.80;15.18;;;;;;;;;;5040934;28;20017;-73
2023/10/11 03:42:12;;;;;;;34.45;15.27;;;;;;;;;;5041098;28;20087;-74
2023/10/11 03:44:47;;;;;;;27.80;15.52;;;11.60;99.90;;;;;;5040843;28;20036;-74
2023/10/11 03:47:15;;;;;;;28.25;14.05;;;11.40;99.90;;;;;;5040733;28;20021;-73
2023/10/11 03:52:19;;;;;;;35.65;15.70;;;11.50;99.90;;;;;;5040909;28;20040;-73
2023/10/11 03:54:46;;;;;;;35.70;14.13;;;;;;;;;;5040695;28;20019;-72
2023/10/11 03:57:12;;;;;;;29.15;14.98;;;;;;;;;;5040716;28;20064;-74
2023/10/11 03:59:38;;;;;;;32.78;15.35;;;;;;;;;;5039237;28;20221;-74
2023/10/11 04:02:10;;;;;;;34.22;15.35;;;11.30;99.90;;;;;;5040539;28;20338;-71
2023/10/11 04:04:36;;;;;;;34.22;17.17;;;;;;;;;;5040409;28;20033;-72
2023/10/11 04:07:04;;;;;;;33.58;15.77;;;;;;;;;;5040263;28;20079;-71
2023/10/11 04:12:04;;;;;;;32.88;16.35;;;;;;;;;;5040632;28;20581;-76
2023/10/11 04:14:45;;;;;;;38.58;15.10;;;;;;;;;;5038871;28;20312;-74
2023/10/11 04:22:49;;;;;;;31.02;16.27;;;;;;;;;;5020297;28;20318;-73
2023/10/11 04:25:18;;;;;;;31.95;16.30;;;;;;;;;;5020331;28;20037;-76
2023/10/11 04:30:23;;;;;;;29.13;14.85;;;;;;;;;;5020508;28;20092;-77
2023/10/11 04:32:55;;;;;;;34.75;14.45;;;;;;;;;;5021719;28;20237;-77
2023/10/11 04:35:21;;;;;;;32.40;15.63;;;;;;;;;;5039954;28;20029;-73
2023/10/11 04:37:54;;;;;;;29.90;14.85;;;11.40;99.90;;;;;;5037540;28;20025;-78
2023/10/11 04:40:38;;;;;;;35.67;15.43;;;;;;;;;;5028744;28;20077;-75
2023/10/11 04:43:06;;;;;;;32.17;16.13;;;11.70;99.90;;;;;;5038191;28;20041;-79
2023/10/11 04:45:45;;;;;;;36.70;16.13;;;;;;;;;;5037922;28;20040;-78
2023/10/11 04:48:15;;;;;;;33.25;15.40;;;11.50;99.90;;;;;;5036750;28;20348;-75
2023/10/11 04:50:49;;;;;;;31.90;16.48;;;11.40;99.90;;;;;;5040029;28;20183;-78
2023/10/11 04:53:18;;;;;;;32.85;14.75;;;;;;;;;;5040083;28;20313;-75
2023/10/11 04:55:58;;;;;;;31.08;15.68;;;;;;;;;;5035143;28;20037;-73
2023/10/11 04:58:51;;;;;;;41.25;16.98;;;;;;;;;;5035207;28;20064;-71
2023/10/11 05:01:29;;;;;;;30.55;15.65;;;;;;;;;;5039109;28;20028;-71
2023/10/11 05:04:01;;;;;;;34.22;16.05;;;;;;;;;;5035989;28;20317;-74
2023/10/11 05:06:39;;;;;;;34.78;16.20;;;;;;;;;;5039893;28;20032;-74
2023/10/11 05:09:13;;;;;;;33.80;15.77;;;;;;;;;;5039869;28;20048;-73
2023/10/11 05:11:43;;;;;;;33.72;15.68;;;;;;;;;;5039613;28;20068;-73
2023/10/11 05:16:59;;;;;;;35.85;16.08;;;;;;;;;;5038779;28;20048;-72
2023/10/11 05:19:28;;;;;;;33.33;16.65;;;;;;;;;;5033400;28;20071;-68
2023/10/11 05:21:54;;;;;;;;;;;;;;;;;;5038272;28;20045;-72
2023/10/11 05:32:41;;;;;;;43.90;19.73;;;;;;;;;;5038792;28;20077;-72
2023/10/11 05:51:28;;;;;;;40.20;19.30;;;;;;;;;;5042494;28;20064;-71
2023/10/11 05:53:59;;;;;;;51.95;18.90;;;11.50;99.90;;;;;;5042787;28;20032;-71
2023/10/11 05:56:25;;;;;;;47.00;20.55;;;;;;;;;;5042834;28;20408;-71
2023/10/11 05:58:54;;;;;;;48.83;19.33;;;;;;;;;;5042874;28;20100;-71
2023/10/11 06:01:21;;;;;;;54.45;19.55;;;;;;;;;;5042688;28;20273;-71
2023/10/11 06:03:51;;;;;;;53.33;20.33;;;;;;;;;;5042474;28;20081;-70
2023/10/11 06:06:23;;;;;;;46.03;18.65;;;;;;;;;;5042670;28;20025;-70
2023/10/11 06:08:50;;;;;;;44.50;19.95;;;;;;;;;;5042522;28;20056;-70
2023/10/11 06:11:16;;;;;;;41.88;18.48;;;;;;;;;;5042718;28;20037;-73
2023/10/11 06:13:46;;;;;;;47.30;20.90;;;;;;;;;;5042686;28;20088;-72
2023/10/11 06:16:13;;;;;;;47.47;17.95;;;;;;;;;;5042525;28;20029;-73
2023/10/11 06:18:39;;;;;;;55.05;20.25;;;;;;;;;;5042496;28;20044;-73
2023/10/11 06:21:18;;;;;;;54.28;21.02;;;;;;;;;;5042266;28;20093;-75
2023/10/11 06:23:48;;;;;;;41.60;18.38;;;;;;;;;;5042217;28;20037;-73
2023/10/11 06:29:07;;;;;;;47.35;18.73;;;;;;;;;;5041440;28;20224;-74
2023/10/11 06:31:39;;;;;;;44.85;17.73;;;;;;;;;;5040215;28;20344;-73
2023/10/11 06:34:15;;;;;;;47.72;21.05;;;;;;;;;;5042450;28;20041;-74
2023/10/11 06:36:50;;;;;;;40.97;18.85;;;;;;;;;;5042226;28;20034;-73
2023/10/11 06:40:08;;;;;;;42.33;17.92;;;12.60;99.60;;;;;;5042011;28;20033;-72
2023/10/11 06:44:50;;;;;;;39.67;18.85;;;13.10;98.90;;;;;;5023446;28;20022;-71
2023/10/11 06:47:21;;;;;;;40.15;17.23;;;13.00;97.70;;;;;;5028555;28;20638;-76
2023/10/11 06:49:56;;;;;;;50.42;19.80;;;13.30;97.50;;;;;;5041776;28;20025;-76
2023/10/11 06:52:26;;;;;;;48.58;18.23;;;;;;;;;;5040439;28;20033;-75
2023/10/11 06:57:39;;;;;;;33.85;16.30;;;;;;;;;;5041642;28;20283;-77
2023/10/11 07:00:20;;;;;;;38.38;17.98;;;;;;;;;;5022515;28;20018;-85
2023/10/11 07:02:47;;;;;;;44.65;18.58;;;;;;;;;;5038458;28;20037;-84
2023/10/11 07:05:25;;;;;;;41.45;18.35;;;;;;;;;;5040726;28;20092;-88
2023/10/11 07:07:52;;;;;;;41.15;17.85;;;;;;;;;;5041644;28;20309;-85
2023/10/11 07:10:32;;;;;;;43.97;17.67;;;;;;;;;;5039976;28;20071;-81
2023/10/11 07:13:06;;;;;;;36.72;16.95;;;;;;;;;;5039849;28;20055;-82
2023/10/11 07:15:51;;;;;;;37.97;17.50;;;;;;;;;;5041281;28;20343;-81
2023/10/11 07:18:27;;;;;;;44.78;18.58;;;;;;;;;;5041186;28;20137;-79
2023/10/11 07:21:09;;;;;;;43.47;17.15;;;;;;;;;;5040093;28;20041;-78
2023/10/11 07:23:45;;;;;;;36.92;16.48;;;;;;;;;;5035818;28;20072;-79
2023/10/11 07:26:48;;;;;;;37.67;17.23;;;;;;;;;;5036374;28;20020;-79
2023/10/11 07:29:12;;;;;;;43.05;17.92;;;;;;;;;;5040904;28;20033;-79
2023/10/11 07:31:38;;;;;;;;;;;;;;;;;;5030805;28;20030;-81
2023/10/11 07:34:06;;;;;;;37.97;17.27;;;;;;;;;;5031773;28;19994;-79
2023/10/11 07:36:38;;;;;;;32.45;14.95;;;;;;;;;;5028551;28;20092;-80
2023/10/11 07:41:42;;;;;;;30.73;13.75;;;;;;;;;;5028987;28;20100;-78
2023/10/11 07:44:12;;;;;;;22.20;11.55;;;;;;;;;;5020375;28;20193;-75
2023/10/11 07:46:39;;;;;;;31.00;13.57;;;;;;;;;;5035269;28;20029;-75
2023/10/11 07:49:14;;;;;;;21.90;12.07;;;;;;;;;;5038620;28;20022;-75
2023/10/11 07:51:41;;;;;;;19.02;11.38;;;;;;;;;;5035175;28;20014;-75
2023/10/11 07:54:08;;;;;;;27.77;10.57;;;;;;;;;;5040146;28;20033;-75
2023/10/11 07:56:37;;;;;;;19.77;10.00;;;;;;;;;;5040231;28;20036;-75
2023/10/11 07:59:09;;;;;;;22.42;11.32;;;;;;;;;;5040090;28;20127;-75
2023/10/11 08:01:45;;;;;;;17.17;10.40;;;;;;;;;;5038413;28;20029;-75
2023/10/11 08:04:21;;;;;;;26.67;11.38;;;16.60;94.50;;;;;;5038148;28;20060;-75
2023/10/11 08:06:47;;;;;;;19.30;10.05;;;;;;;;;;5039882;28;20210;-75
2023/10/11 08:09:21;;;;;;;23.17;10.38;;;;;;;;;;5039851;28;20105;-75
2023/10/11 08:11:52;;;;;;;20.30;8.75;;;;;;;;;;5038936;28;20021;-75
2023/10/11 08:14:22;;;;;;;16.58;9.63;;;;;;;;;;5038877;28;20032;-75
2023/10/11 08:16:52;;;;;;;21.67;11.07;;;;;;;;;;5039515;28;20055;-75
2023/10/11 08:19:18;;;;;;;19.88;9.88;;;;;;;;;;5039334;28;20187;-75
2023/10/11 08:21:54;;;;;;;17.40;8.88;;;;;;;;;;5039997;28;20092;-75
2023/10/11 08:24:24;;;;;;;19.10;9.50;;;17.40;90.50;;;;;;5038525;28;20365;-75
2023/10/11 08:26:52;;;;;;;23.63;9.25;;;;;;;;;;5039515;28;20021;-75
2023/10/11 08:29:27;;;;;;;25.02;9.93;;;;;;;;;;5039709;28;20190;-74
2023/10/11 08:32:01;;;;;;;20.52;9.90;;;;;;;;;;5039600;28;20057;-75
2023/10/11 08:34:27;;;;;;;19.35;9.05;;;18.10;90.00;;;;;;5039621;28;20292;-75
2023/10/11 08:36:54;;;;;;;17.98;8.85;;;;;;;;;;5039084;28;20021;-76
2023/10/11 08:39:35;;;;;;;17.52;8.52;;;18.20;86.50;;;;;;5038384;28;20025;-76
2023/10/11 08:42:06;;;;;;;17.10;9.20;;;;;;;;;;5039589;28;20119;-75
2023/10/11 08:44:32;;;;;;;19.73;9.18;;;;;;;;;;5039157;28;20036;-76
2023/10/11 08:47:03;;;;;;;17.77;8.57;;;;;;;;;;5039669;28;20017;-76
2023/10/11 08:49:29;;;;;;;19.67;9.98;;;;;;;;;;5039566;28;20093;-75
2023/10/11 08:51:57;;;;;;;22.58;10.02;;;;;;;;;;5036627;28;20459;-76
2023/10/11 08:54:26;;;;;;;24.38;9.05;;;18.50;88.20;;;;;;5028348;28;20373;-75
2023/10/11 08:56:54;;;;;;;22.15;9.50;;;;;;;;;;5022756;28;20018;-75
2023/10/11 08:59:25;;;;;;;19.67;10.20;;;18.90;86.90;;;;;;5029286;28;20038;-76
2023/10/11 09:01:51;;;;;;;18.58;9.98;;;;;;;;;;5031301;28;20096;-76
2023/10/11 09:04:17;;;;;;;21.52;8.55;;;;;;;;;;5022525;28;20042;-77
2023/10/11 09:06:45;;;;;;;18.52;9.45;;;;;;;;;;5037675;28;20096;-74
2023/10/11 09:09:15;;;;;;;18.98;9.57;;;;;;;;;;5026762;28;20021;-76
2023/10/11 09:12:23;;;;;;;13.90;7.38;;;;;;;;;;5028197;28;20045;-76
2023/10/11 09:15:00;;;;;;;18.50;7.30;;;;;;;;;;5032831;28;20068;-76
2023/10/11 09:17:27;;;;;;;15.25;7.50;;;;;;;;;;5043548;28;20028;-78
2023/10/11 09:19:58;;;;;;;24.15;9.07;;;;;;;;;;5042188;28;20333;-76
2023/10/11 09:22:24;;;;;;;18.05;8.02;;;;;;;;;;5043206;28;20229;-78
2023/10/11 09:25:07;;;;;;;19.33;8.07;;;;;;;;;;5043228;28;20029;-78
2023/10/11 09:27:53;;;;;;;15.15;8.07;;;;;;;;;;5044250;28;20321;-90
2023/10/11 09:30:20;;;;;;;18.25;7.72;;;;;;;;;;5043883;28;20044;-88
2023/10/11 09:32:49;;;;;;;18.92;8.27;;;;;;;;;;5043490;28;20049;-82
2023/10/11 09:35:29;;;;;;;16.98;9.23;;;;;;;;;;5043086;28;20060;-78
2023/10/11 09:37:56;;;;;;;22.05;7.93;;;;;;;;;;5041368;28;20032;-77
2023/10/11 09:40:35;;;;;;;15.40;6.72;;;20.10;73.40;;;;;;5038279;28;20057;-77
2023/10/11 09:43:01;;;;;;;17.77;7.97;;;;;;;;;;5040282;28;20127;-76
2023/10/11 09:45:41;;;;;;;15.02;7.05;;;20.00;73.00;;;;;;5041009;28;20725;-75
2023/10/11 09:48:09;;;;;;;15.75;6.60;;;;;;;;;;5037900;28;20025;-76
2023/10/11 09:50:40;;;;;;;18.02;7.00;;;;;;;;;;5042791;28;20297;-76
2023/10/11 09:53:09;;;;;;;15.15;6.75;;;20.70;71.90;;;;;;5025754;28;20057;-76
2023/10/11 09:55:37;;;;;;;12.98;6.65;;;;;;;;;;5042732;28;20117;-77
2023/10/11 09:58:11;;;;;;;19.27;7.13;;;;;;;;;;5042765;28;20089;-75
2023/10/11 10:00:54;;;;;;;16.25;7.30;;;20.40;69.40;;;;;;5038353;28;20033;-76
2023/10/11 10:03:24;;;;;;;14.75;7.22;;;;;;;;;;5039327;28;20315;-76
2023/10/11 10:06:05;;;;;;;23.02;8.30;;;;;;;;;;5041653;28;20043;-75
2023/10/11 10:08:31;;;;;;;13.93;6.70;;;;;;;;;;5042853;28;20100;-76
2023/10/11 10:10:58;;;;;;;12.38;5.75;;;;;;;;;;5041040;28;20109;-74
2023/10/11 10:13:25;;;;;;;13.77;6.22;;;;;;;;;;5042485;28;20325;-74
2023/10/11 10:15:57;;;;;;;13.77;5.63;;;;;;;;;;5040697;28;20037;-74
2023/10/11 10:18:24;;;;;;;14.23;5.22;;;;;;;;;;5025566;28;20030;-75
2023/10/11 10:21:03;;;;;;;15.23;5.13;;;;;;;;;;5042261;28;20363;-74
2023/10/11 10:23:30;;;;;;;11.52;5.53;;;;;;;;;;5042420;28;20044;-75
2023/10/11 10:26:05;;;;;;;15.32;6.55;;;;;;;;;;5041586;28;20032;-74
2023/10/11 10:28:38;;;;;;;15.68;6.90;;;21.20;64.40;;;;;;5042254;28;20025;-75
2023/10/11 10:31:10;;;;;;;15.45;6.53;;;;;;;;;;5042138;28;20059;-76
2023/10/11 10:33:36;;;;;;;14.57;6.80;;;;;;;;;;5040772;28;20050;-73
2023/10/11 10:36:32;;;;;;;16.13;6.13;;;;;;;;;;5042091;28;20045;-76
2023/10/11 10:39:00;;;;;;;16.55;7.30;;;;;;;;;;5042064;28;20228;-74
2023/10/11 10:41:27;;;;;;;16.73;8.50;;;;;;;;;;5040745;28;20061;-76
2023/10/11 10:44:10;;;;;;;19.33;8.35;;;21.20;66.40;;;;;;5041876;28;20037;-76
2023/10/11 10:46:37;;;;;;;18.10;8.25;;;;;;;;;;5042219;28;20036;-75
2023/10/11 10:49:04;;;;;;;15.95;8.18;;;21.10;65.70;;;;;;5033727;28;20330;-76
2023/10/11 10:51:37;;;;;;;18.20;8.27;;;21.20;66.60;;;;;;5035205;28;20029;-76
2023/10/11 10:54:22;;;;;;;21.02;8.80;;;21.30;66.70;;;;;;5039990;28;20025;-76
2023/10/11 10:56:48;;;;;;;17.42;8.95;;;;;;;;;;5041940;28;20036;-76
2023/10/11 10:59:20;;;;;;;19.23;9.50;;;21.30;65.30;;;;;;5041127;28;20018;-76
2023/10/11 11:01:46;;;;;;;22.38;9.68;;;;;;;;;;5035280;28;20120;-74
2023/10/11 11:04:13;;;;;;;24.30;11.60;;;;;;;;;;5034530;28;20084;-76
2023/10/11 11:06:40;;;;;;;23.77;10.73;;;;;;;;;;5041302;28;20477;-76
2023/10/11 11:09:13;;;;;;;29.08;11.32;;;;;;;;;;5035114;28;20021;-77
2023/10/11 11:11:41;;;;;;;18.25;10.15;;;;;;;;;;5038393;28;20057;-77
2023/10/11 11:14:19;;;;;;;22.95;9.45;;;21.40;67.00;;;;;;5037318;28;20029;-76
2023/10/11 11:16:56;;;;;;;26.45;11.05;;;21.60;67.20;;;;;;5046664;28;20061;-78
2023/10/11 11:19:26;;;;;;;15.43;7.57;;;21.70;65.90;;;;;;5036457;28;20053;-75
2023/10/11 11:22:11;;;;;;;18.08;8.43;;;;;;;;;;5032048;28;20085;-75
2023/10/11 11:24:38;;;;;;;20.25;9.15;;;;;;;;;;5032337;28;20044;-75
2023/10/11 11:27:26;;;;;;;16.77;8.60;;;21.90;65.20;;;;;;5039624;28;20025;-74
2023/10/11 11:30:07;;;;;;;20.35;9.30;;;;;;;;;;5034816;28;20033;-76
2023/10/11 11:32:45;;;;;;;16.67;7.75;;;21.90;65.70;;;;;;5035433;28;20052;-75
2023/10/11 11:35:31;;;;;;;10.98;7.20;;;;;;;;;;5035987;28;20072;-77
2023/10/11 11:38:01;;;;;;;13.00;6.30;;;;;;;;;;5033106;28;20026;-75
2023/10/11 11:40:36;;;;;;;11.52;6.22;;;;;;;;;;5033087;28;20258;-76
2023/10/11 11:43:03;;;;;;;13.90;6.50;;;;;;;;;;5032780;28;20063;-75
2023/10/11 11:45:35;;;;;;;15.00;5.60;;;22.10;63.80;;;;;;5039343;28;20041;-75
2023/10/11 11:48:06;;;;;;;10.52;5.72;;;;;;;;;;5035280;28;20091;-76
2023/10/11 11:50:37;;;;;;;10.60;6.60;;;;;;;;;;5038767;28;20032;-77
2023/10/11 11:53:04;;;;;;;13.73;6.97;;;;;;;;;;5030235;28;20022;-76
2023/10/11 11:55:32;;;;;;;19.07;6.80;;;;;;;;;;5038794;28;20280;-76
2023/10/11 11:57:59;;;;;;;13.73;7.38;;;;;;;;;;5031365;28;20262;-76
2023/10/11 12:03:04;;;;;;;12.90;6.10;;;22.70;63.60;;;;;;5029972;28;20046;-82
2023/10/11 12:05:41;;;;;;;10.52;6.28;;;22.60;63.90;;;;;;5039748;28;20379;-78
2023/10/11 12:08:08;;;;;;;18.02;6.18;;;;;;;;;;5032894;28;20139;-77
2023/10/11 12:10:35;;;;;;;11.63;6.32;;;;;;;;;;5035615;28;20021;-77
2023/10/11 12:13:05;;;;;;;12.52;6.07;;;;;;;;;;5038929;28;20212;-82
2023/10/11 12:15:34;;;;;;;11.38;5.40;;;;;;;;;;5034055;28;20064;-77
2023/10/11 12:18:05;;;;;;;12.13;5.97;;;;;;;;;;5038824;28;20029;-75
2023/10/11 12:20:36;;;;;;;15.52;6.30;;;;;;;;;;5038361;28;20059;-79
2023/10/11 12:23:12;;;;;;;13.05;6.03;;;22.90;64.40;;;;;;5037603;28;20032;-79
2023/10/11 12:25:40;;;;;;;9.57;4.88;;;;;;;;;;5035779;28;20101;-78
2023/10/11 12:28:08;;;;;;;17.30;5.93;;;22.90;62.80;;;;;;5029431;28;20033;-77
2023/10/11 12:30:35;;;;;;;14.38;5.68;;;;;;;;;;5032777;28;20105;-80
2023/10/11 12:33:08;;;;;;;10.02;5.35;;;;;;;;;;5014790;28;20061;-78
2023/10/11 12:35:40;;;;;;;9.00;4.63;;;;;;;;;;5034585;28;20037;-78
2023/10/11 12:38:08;;;;;;;10.00;5.32;;;23.90;59.80;;;;;;5036430;28;20053;-76
2023/10/11 12:40:36;;;;;;;8.35;4.90;;;;;;;;;;5020204;28;20041;-76
2023/10/11 12:43:07;;;;;;;10.85;4.72;;;;;;;;;;5021623;28;20127;-80
2023/10/11 12:45:35;;;;;;;12.52;4.32;;;24.80;56.90;;;;;;5023699;28;20167;-76
2023/10/11 12:48:10;;;;;;;7.00;4.15;;;;;;;;;;5052388;28;20277;-78
2023/10/11 12:50:37;;;;;;;8.23;3.75;;;25.70;56.80;;;;;;5047814;28;20033;-78
2023/10/11 12:53:13;;;;;;;18.60;4.68;;;;;;;;;;5043947;28;20052;-77
2023/10/11 12:55:49;;;;;;;9.32;4.00;;;26.60;54.10;;;;;;5042761;28;20369;-78
2023/10/11 12:58:15;;;;;;;6.20;4.00;;;;;;;;;;5043726;28;20013;-75
2023/10/11 13:00:51;;;;;;;9.75;3.40;;;26.60;51.80;;;;;;5031274;28;20088;-76
2023/10/11 13:03:18;;;;;;;6.43;3.47;;;26.60;50.90;;;;;;5042832;28;20084;-78
2023/10/11 13:05:45;;;;;;;6.95;3.88;;;;;;;;;;5042923;28;20143;-78
2023/10/11 13:08:15;;;;;;;8.95;3.45;;;;;;;;;;5037949;28;20030;-77
2023/10/11 13:10:51;;;;;;;11.75;2.58;;;27.40;49.80;;;;;;5034783;28;20328;-78
2023/10/11 13:13:17;;;;;;;8.57;3.17;;;;;;;;;;5028598;28;20068;-79
2023/10/11 13:16:00;;;;;;;6.13;3.03;;;27.80;47.80;;;;;;5024638;28;20014;-78
2023/10/11 13:18:37;;;;;;;9.30;2.83;;;27.90;47.20;;;;;;5030296;28;20026;-76
2023/10/11 13:21:05;;;;;;;7.65;3.13;;;28.00;58.20;;;;;;5034650;28;20367;-78
2023/10/11 13:23:31;;;;;;;7.80;2.58;;;;;;;;;;5042694;28;20041;-76
2023/10/11 13:26:06;;;;;;;6.63;2.60;;;;;;;;;;5041829;28;20202;-76
2023/10/11 13:28:33;;;;;;;8.30;2.75;;;;;;;;;;5042077;28;20029;-77
2023/10/11 13:31:01;;;;;;;11.43;2.88;;;27.50;89.20;;;;;;5028511;28;20017;-76
2023/10/11 13:33:31;;;;;;;10.15;2.67;;;27.10;48.50;;;;;;5021858;28;20092;-74
2023/10/11 13:36:00;;;;;;;6.30;2.72;;;26.60;47.90;;;;;;5023352;28;20034;-74
2023/10/11 13:38:30;;;;;;;11.25;2.78;;;;;;;;;;5023219;28;20030;-74
2023/10/11 13:40:56;;;;;;;8.73;2.60;;;;;;;;;;5023300;28;20021;-75
2023/10/11 13:43:24;;;;;;;7.88;3.08;;;;;;;;;;5023031;28;20045;-75
2023/10/11 13:45:56;;;;;;;9.45;2.58;;;;;;;;;;5023077;28;20085;-75
2023/10/11 13:48:39;;;;;;;9.38;2.78;;;;;;;;;;5033586;28;20028;-74
2023/10/11 13:51:06;;;;;;;9.77;2.95;;;25.10;89.10;;;;;;5028934;28;20033;-74
2023/10/11 13:53:41;;;;;;;11.55;2.97;;;24.90;71.00;;;;;;5042927;28;20021;-74
2023/10/11 13:56:31;;;;;;;10.57;3.10;;;24.70;52.60;;;;;;5024170;28;20025;-75
2023/10/11 13:58:57;;;;;;;6.28;2.40;;;24.60;53.50;;;;;;5041734;28;20030;-73
2023/10/11 14:04:13;;;;;;;8.15;2.80;;;;;;;;;;5036385;28;20052;-74
2023/10/11 14:06:42;;;;;;;12.37;3.60;;;;;;;;;;5022821;28;20092;-73
2023/10/11 14:09:18;;;;;;;7.65;2.80;;;24.40;53.30;;;;;;5023955;28;20034;-73
2023/10/11 14:11:53;;;;;;;6.22;2.30;;;;;;;;;;5042149;28;20072;-73
2023/10/11 14:14:20;;;;;;;15.07;2.83;;;24.50;55.90;;;;;;5041184;28;20093;-74
2023/10/11 14:16:47;;;;;;;9.27;3.30;;;;;;;;;;5041984;28;20021;-74
2023/10/11 14:19:16;;;;;;;6.00;2.73;;;;;;;;;;5042445;28;20045;-74
2023/10/11 14:21:47;;;;;;;8.10;2.58;;;24.40;53.50;;;;;;5042425;28;20263;-73
2023/10/11 14:24:13;;;;;;;8.40;2.97;;;;;;;;;;5042367;28;20029;-74
2023/10/11 14:26:40;;;;;;;15.88;3.22;;;;;;;;;;5042308;28;20032;-74
2023/10/11 14:29:07;;;;;;;7.25;2.30;;;;;;;;;;5039735;28;20029;-74
2023/10/11 14:31:33;;;;;;;8.40;2.90;;;;;;;;;;5040958;28;20017;-74
2023/10/11 14:34:00;;;;;;;7.93;2.72;;;;;;;;;;5040758;28;20329;-74
2023/10/11 14:36:27;;;;;;;12.70;2.92;;;;;;;;;;5040203;28;20100;-74
2023/10/11 14:38:53;;;;;;;10.90;3.17;;;;;;;;;;5041899;28;20029;-74
2023/10/11 14:41:24;;;;;;;11.73;2.45;;;23.70;54.30;;;;;;5041672;28;20021;-74
2023/10/11 14:43:50;;;;;;;7.43;3.05;;;;;;;;;;5041702;28;20034;-74
2023/10/11 14:46:19;;;;;;;14.43;3.30;;;;;;;;;;5041643;28;20021;-74
2023/10/11 14:48:48;;;;;;;6.55;3.03;;;23.80;54.80;;;;;;5041750;28;20021;-74
2023/10/11 14:51:16;;;;;;;8.73;3.10;;;23.80;54.70;;;;;;5040419;28;20021;-74
2023/10/11 14:53:44;;;;;;;8.60;2.92;;;;;;;;;;5040362;28;20029;-73
2023/10/11 14:56:10;;;;;;;8.07;2.67;;;;;;;;;;5041719;28;20028;-73
2023/10/11 14:58:36;;;;;;;11.93;2.70;;;;;;;;;;5041592;28;20040;-73
2023/10/11 15:01:09;;;;;;;9.07;2.35;;;;;;;;;;5041617;28;20049;-74
2023/10/11 15:03:36;;;;;;;7.63;2.47;;;23.40;55.20;;;;;;5041405;28;20033;-74
2023/10/11 15:06:10;;;;;;;9.65;3.50;;;23.30;54.90;;;;;;5041625;28;20029;-74
2023/10/11 15:08:43;;;;;;;7.70;2.63;;;;;;;;;;5041517;28;20333;-74
2023/10/11 15:11:11;;;;;;;10.73;2.95;;;;;;;;;;5041489;28;20132;-73
2023/10/11 15:13:37;;;;;;;7.60;3.05;;;;;;;;;;5040472;28;20112;-73
2023/10/11 15:16:04;;;;;;;9.52;2.92;;;;;;;;;;5041258;28;20025;-73
2023/10/11 15:18:33;;;;;;;6.55;2.78;;;22.70;56.90;;;;;;5041294;28;20309;-74
2023/10/11 15:20:59;;;;;;;14.60;3.45;;;;;;;;;;5039853;28;20328;-74